createdAt,value
2022-08-19T00:02:00.476Z,21.13
2022-08-19T00:04:31.453Z,21.20
2022-08-19T00:07:01.261Z,19.33
2022-08-19T00:09:30.910Z,19.60
2022-08-19T00:12:00.607Z,19.23
2022-08-19T00:14:32.856Z,19.15
2022-08-19T00:17:02.674Z,17.63
2022-08-19T00:19:32.430Z,19.95
2022-08-19T00:22:02.294Z,19.70
2022-08-19T00:24:31.948Z,18.75
2022-08-19T00:27:26.382Z,19.88
2022-08-19T00:29:52.585Z,19.98
2022-08-19T00:32:23.110Z,19.17
2022-08-19T00:34:55.040Z,19.40
2022-08-19T00:37:25.416Z,19.83
2022-08-19T00:39:55.120Z,19.23
2022-08-19T00:42:24.982Z,18.40
2022-08-19T00:44:54.659Z,18.08
2022-08-19T00:47:24.301Z,17.35
2022-08-19T00:49:56.322Z,18.42
2022-08-19T00:52:31.393Z,16.60
2022-08-19T00:55:01.211Z,16.00
2022-08-19T00:57:34.693Z,16.25
2022-08-19T01:00:04.705Z,19.50
2022-08-19T01:02:34.484Z,17.23
2022-08-19T01:05:08.548Z,16.63
2022-08-19T01:07:38.547Z,14.85
2022-08-19T01:10:12.480Z,13.93
2022-08-19T01:12:42.245Z,14.98
2022-08-19T01:15:12.580Z,14.00
2022-08-19T01:17:42.525Z,13.68
2022-08-19T01:20:16.879Z,15.85
2022-08-19T01:22:48.053Z,13.82
2022-08-19T01:25:18.555Z,12.93
2022-08-19T01:27:53.623Z,12.88
2022-08-19T01:30:24.761Z,12.70
2022-08-19T01:32:54.887Z,14.07
2022-08-19T01:35:25.917Z,11.68
2022-08-19T01:37:59.232Z,11.07
2022-08-19T01:40:31.499Z,11.20
2022-08-19T01:43:01.135Z,11.27
2022-08-19T01:45:31.007Z,10.55
2022-08-19T01:48:02.378Z,10.15
2022-08-19T01:50:33.178Z,9.98
2022-08-19T01:53:06.166Z,12.23
2022-08-19T01:55:41.075Z,9.30
2022-08-19T01:58:21.129Z,10.45
2022-08-19T02:00:50.746Z,10.02
2022-08-19T02:03:20.281Z,11.60
2022-08-19T02:05:49.835Z,10.98
2022-08-19T02:08:19.521Z,10.52
2022-08-19T02:10:49.002Z,10.85
2022-08-19T02:13:21.074Z,11.63
2022-08-19T02:15:55.907Z,12.50
2022-08-19T02:18:28.055Z,11.77
2022-08-19T02:20:57.970Z,12.63
2022-08-19T02:23:27.635Z,11.90
2022-08-19T02:25:57.206Z,10.77
2022-08-19T02:28:26.708Z,11.68
2022-08-19T02:30:56.369Z,11.95
2022-08-19T02:33:26.051Z,10.48
2022-08-19T02:35:55.751Z,11.38
2022-08-19T02:38:28.517Z,12.98
2022-08-19T02:41:02.801Z,11.88
2022-08-19T02:43:34.557Z,12.93
2022-08-19T02:46:04.682Z,12.25
2022-08-19T02:48:35.133Z,11.50
2022-08-19T02:51:04.884Z,13.73
2022-08-19T02:53:34.676Z,13.60
2022-08-19T02:56:05.359Z,13.48
2022-08-19T02:58:34.997Z,12.18
2022-08-19T03:01:05.100Z,14.43
2022-08-19T03:03:34.798Z,14.23
2022-08-19T03:06:11.184Z,13.05
2022-08-19T03:08:42.102Z,13.93
2022-08-19T03:11:31.876Z,14.35
2022-08-19T03:14:02.354Z,13.88
2022-08-19T03:16:33.462Z,14.48
2022-08-19T03:19:03.573Z,14.35
2022-08-19T03:21:34.114Z,13.23
2022-08-19T03:24:04.977Z,14.88
2022-08-19T03:26:34.563Z,15.95
2022-08-19T03:29:08.567Z,15.40
2022-08-19T03:31:43.282Z,14.45
2022-08-19T03:34:15.340Z,14.43
2022-08-19T03:36:45.145Z,15.95
2022-08-19T03:39:14.722Z,17.38
2022-08-19T03:41:46.270Z,15.52
2022-08-19T03:44:20.564Z,17.10
2022-08-19T03:46:56.170Z,17.67
2022-08-19T03:49:27.219Z,19.73
2022-08-19T03:51:59.099Z,18.73
2022-08-19T03:54:28.806Z,19.42
2022-08-19T03:56:58.807Z,20.67
2022-08-19T03:59:32.715Z,16.83
2022-08-19T04:02:02.963Z,15.73
2022-08-19T04:04:32.613Z,15.98
2022-08-19T04:07:02.293Z,16.85
2022-08-19T04:09:32.068Z,18.95
2022-08-19T04:12:01.876Z,16.45
2022-08-19T04:14:36.055Z,17.42
2022-08-19T04:17:07.104Z,17.90
2022-08-19T04:19:37.573Z,18.02
2022-08-19T04:22:07.720Z,17.48
2022-08-19T04:24:37.901Z,18.90
2022-08-19T04:27:08.329Z,18.65
2022-08-19T04:29:37.841Z,19.30
2022-08-19T04:32:09.120Z,19.83
2022-08-19T04:35:02.731Z,20.35
2022-08-19T04:37:35.142Z,22.50
2022-08-19T04:40:23.778Z,22.75
2022-08-19T04:42:53.606Z,24.42
2022-08-19T04:45:23.329Z,25.90
2022-08-19T04:48:19.563Z,27.17
2022-08-19T04:50:46.177Z,27.88
2022-08-19T04:53:15.766Z,27.73
2022-08-19T04:55:45.440Z,25.30
2022-08-19T04:58:15.059Z,23.63
2022-08-19T05:00:45.998Z,23.08
2022-08-19T05:03:18.155Z,24.85
2022-08-19T05:05:48.137Z,24.33
2022-08-19T05:08:31.270Z,22.10
2022-08-19T05:11:02.019Z,22.40
2022-08-19T05:13:31.645Z,26.70
2022-08-19T05:16:01.671Z,28.17
2022-08-19T05:18:49.646Z,28.10
2022-08-19T05:21:38.180Z,30.63
2022-08-19T05:24:11.243Z,27.63
2022-08-19T05:26:41.331Z,23.70
2022-08-19T05:29:11.078Z,16.58
2022-08-19T05:31:43.794Z,8.18
2022-08-19T05:34:18.229Z,14.30
2022-08-19T05:36:50.008Z,8.65
2022-08-19T05:39:20.939Z,8.88
2022-08-19T05:41:52.751Z,13.05
2022-08-19T05:44:23.868Z,13.40
2022-08-19T05:46:55.237Z,13.20
2022-08-19T05:49:25.426Z,15.13
2022-08-19T05:51:55.134Z,16.08
2022-08-19T05:54:25.491Z,16.55
2022-08-19T05:56:55.459Z,16.67
2022-08-19T05:59:25.574Z,17.95
2022-08-19T06:01:57.986Z,16.48
2022-08-19T06:04:27.787Z,17.35
2022-08-19T06:06:58.548Z,33.10
2022-08-19T06:09:27.886Z,21.98
2022-08-19T06:11:59.629Z,18.70
2022-08-19T06:14:33.468Z,18.30
2022-08-19T06:17:07.147Z,19.67
2022-08-19T06:19:40.756Z,22.48
2022-08-19T06:22:11.867Z,23.52
2022-08-19T06:24:41.642Z,23.55
2022-08-19T06:27:11.253Z,22.98
2022-08-19T06:29:40.740Z,23.02
2022-08-19T06:32:10.344Z,24.70
2022-08-19T06:34:40.098Z,22.50
2022-08-19T06:37:09.822Z,25.95
2022-08-19T06:39:40.961Z,25.00
2022-08-19T06:42:13.691Z,25.77
2022-08-19T06:44:48.820Z,25.90
2022-08-19T06:47:23.689Z,25.05
2022-08-19T06:50:05.650Z,25.27
2022-08-19T06:52:36.488Z,26.58
2022-08-19T06:55:06.983Z,25.77
2022-08-19T06:57:36.882Z,24.80
2022-08-19T07:00:12.305Z,24.75
2022-08-19T07:02:48.033Z,25.55
2022-08-19T07:05:23.482Z,23.88
2022-08-19T07:07:53.095Z,26.52
2022-08-19T07:10:23.584Z,24.13
2022-08-19T07:12:55.965Z,23.63
2022-08-19T07:15:25.868Z,22.52
2022-08-19T07:17:55.421Z,21.45
2022-08-19T07:20:28.566Z,20.33
2022-08-19T07:22:58.448Z,17.90
2022-08-19T07:25:32.077Z,17.52
2022-08-19T07:28:02.891Z,18.48
2022-08-19T07:30:32.679Z,15.55
2022-08-19T07:33:04.265Z,16.25
2022-08-19T07:35:35.125Z,18.30
2022-08-19T07:38:04.871Z,17.85
2022-08-19T07:40:34.544Z,17.90
2022-08-19T07:43:04.116Z,18.77
2022-08-19T07:45:35.487Z,18.25
2022-08-19T07:48:06.250Z,18.88
2022-08-19T07:50:35.947Z,18.95
2022-08-19T07:53:05.551Z,17.75
2022-08-19T07:55:41.363Z,17.88
2022-08-19T07:58:13.747Z,19.42
2022-08-19T08:00:43.987Z,18.48
2022-08-19T08:03:13.833Z,19.48
2022-08-19T08:06:01.493Z,22.88
2022-08-19T08:08:49.032Z,21.95
2022-08-19T08:11:23.947Z,22.05
2022-08-19T08:14:01.060Z,23.88
2022-08-19T08:16:34.867Z,21.73
2022-08-19T08:19:14.813Z,13.73
2022-08-19T08:21:54.431Z,7.78
2022-08-19T08:24:28.676Z,5.80
2022-08-19T08:26:58.625Z,5.32
2022-08-19T08:29:35.086Z,4.70
2022-08-19T08:32:14.843Z,5.47
2022-08-19T08:34:44.976Z,4.53
2022-08-19T08:37:17.060Z,3.53
2022-08-19T08:39:46.783Z,4.68
2022-08-19T08:42:25.996Z,4.10
2022-08-19T08:45:02.438Z,4.80
2022-08-19T08:47:32.932Z,4.15
2022-08-19T08:50:10.103Z,4.93
2022-08-19T08:52:41.027Z,5.53
2022-08-19T08:55:17.718Z,5.70
2022-08-19T08:57:57.241Z,5.75
2022-08-19T09:00:43.121Z,7.53
2022-08-19T09:03:31.505Z,6.43
2022-08-19T09:06:12.099Z,5.63
2022-08-19T09:08:47.855Z,5.53
2022-08-19T09:11:42.555Z,5.55
2022-08-19T09:14:47.375Z,5.53
2022-08-19T09:17:10.423Z,5.25
2022-08-19T09:19:50.272Z,4.90
2022-08-19T09:22:25.490Z,5.00
2022-08-19T09:24:55.905Z,5.13
2022-08-19T09:27:42.462Z,5.03
2022-08-19T09:30:24.234Z,4.50
2022-08-19T09:32:57.025Z,4.40
2022-08-19T09:35:28.392Z,4.95
2022-08-19T09:37:59.947Z,5.55
2022-08-19T09:40:32.604Z,5.45
2022-08-19T09:43:09.856Z,6.68
2022-08-19T09:45:41.444Z,6.82
2022-08-19T09:48:11.764Z,7.07
2022-08-19T09:50:51.473Z,11.02
2022-08-19T09:53:25.617Z,9.27
2022-08-19T09:55:55.981Z,7.15
2022-08-19T09:58:30.349Z,8.95
2022-08-19T10:01:00.700Z,9.07
2022-08-19T10:03:30.727Z,8.00
2022-08-19T10:06:01.208Z,9.85
2022-08-19T10:08:32.825Z,10.73
2022-08-19T10:11:28.600Z,11.25
2022-08-19T10:13:53.580Z,11.15
2022-08-19T10:16:30.155Z,12.50
2022-08-19T10:19:00.113Z,11.63
2022-08-19T10:21:34.758Z,12.30
2022-08-19T10:24:06.263Z,12.65
2022-08-19T10:26:48.709Z,11.57
2022-08-19T10:29:32.853Z,11.85
2022-08-19T10:32:03.745Z,11.82
2022-08-19T10:34:33.516Z,13.85
2022-08-19T10:37:03.069Z,16.20
2022-08-19T10:39:43.365Z,13.85
2022-08-19T10:42:15.262Z,13.32
2022-08-19T10:44:44.934Z,13.25
2022-08-19T10:47:17.523Z,11.65
2022-08-19T10:50:12.672Z,12.23
2022-08-19T10:52:49.823Z,13.27
2022-08-19T10:55:42.026Z,12.98
2022-08-19T10:58:18.241Z,13.73
2022-08-19T11:00:50.751Z,13.38
2022-08-19T11:03:20.966Z,14.45
2022-08-19T11:05:51.279Z,13.90
2022-08-19T11:08:23.012Z,15.48
2022-08-19T11:11:02.961Z,15.13
2022-08-19T11:13:33.070Z,15.57
2022-08-19T11:16:13.190Z,15.75
2022-08-19T11:18:44.450Z,16.88
2022-08-19T11:21:26.230Z,17.42
2022-08-19T11:23:56.633Z,18.50
2022-08-19T11:26:26.508Z,34.47
2022-08-19T11:28:57.306Z,23.23
2022-08-19T11:31:29.413Z,20.75
2022-08-19T11:34:03.975Z,21.00
2022-08-19T11:36:34.943Z,21.98
2022-08-19T11:39:04.542Z,21.92
2022-08-19T11:41:34.140Z,23.73
2022-08-19T11:44:05.318Z,24.00
2022-08-19T11:46:34.938Z,24.88
2022-08-19T11:49:05.276Z,26.05
2022-08-19T11:51:36.137Z,28.25
2022-08-19T11:54:05.826Z,27.55
2022-08-19T11:56:35.568Z,27.70
2022-08-19T11:59:05.266Z,28.80
2022-08-19T12:01:34.797Z,28.88
2022-08-19T12:04:06.600Z,28.70
2022-08-19T12:06:37.000Z,30.17
2022-08-19T12:09:08.106Z,28.73
2022-08-19T12:11:39.144Z,27.88
2022-08-19T12:14:08.844Z,27.85
2022-08-19T12:16:49.067Z,28.30
2022-08-19T12:19:22.815Z,28.85
2022-08-19T12:21:52.810Z,28.50
2022-08-19T12:24:25.565Z,31.02
2022-08-19T12:26:55.813Z,32.10
2022-08-19T12:29:40.097Z,31.80
2022-08-19T12:34:40.327Z,32.83
2022-08-19T12:37:09.887Z,82.45
2022-08-19T12:39:40.611Z,33.58
2022-08-19T12:42:10.787Z,28.63
2022-08-19T12:44:42.722Z,30.35
2022-08-19T12:47:12.800Z,28.02
2022-08-19T12:49:53.573Z,26.85
2022-08-19T12:52:24.572Z,28.00
2022-08-19T12:54:55.187Z,27.77
2022-08-19T12:57:32.875Z,29.17
2022-08-19T13:00:12.236Z,25.95
2022-08-19T13:02:43.018Z,27.20
2022-08-19T13:05:13.377Z,28.13
2022-08-19T13:07:43.397Z,25.08
2022-08-19T13:10:16.955Z,25.63
2022-08-19T13:12:47.475Z,25.20
2022-08-19T13:15:19.425Z,27.65
2022-08-19T13:17:51.703Z,26.80
2022-08-19T13:20:22.084Z,26.60
2022-08-19T13:22:52.095Z,26.27
2022-08-19T13:25:22.258Z,25.70
2022-08-19T13:27:52.012Z,27.50
2022-08-19T13:30:40.411Z,27.90
2022-08-19T13:33:18.850Z,28.97
2022-08-19T13:35:49.677Z,28.77
2022-08-19T13:38:20.219Z,27.13
2022-08-19T13:40:50.208Z,25.40
2022-08-19T13:43:23.360Z,28.83
2022-08-19T13:45:57.995Z,29.05
2022-08-19T13:48:28.975Z,30.38
2022-08-19T13:50:58.525Z,29.60
2022-08-19T13:53:28.286Z,27.95
2022-08-19T13:55:57.952Z,30.65
2022-08-19T13:58:27.571Z,29.95
2022-08-19T14:00:57.367Z,29.58
2022-08-19T14:03:26.815Z,25.58
2022-08-19T14:05:56.504Z,28.45
2022-08-19T14:08:26.339Z,29.58
2022-08-19T14:10:56.032Z,30.55
2022-08-19T14:13:26.185Z,30.35
2022-08-19T14:15:55.763Z,31.10
2022-08-19T14:18:28.596Z,31.00
2022-08-19T14:20:59.115Z,31.75
2022-08-19T14:23:29.083Z,30.35
2022-08-19T14:26:12.310Z,31.38
2022-08-19T14:28:44.703Z,33.45
2022-08-19T14:31:20.739Z,32.25
2022-08-19T14:33:50.498Z,32.75
2022-08-19T14:36:20.575Z,30.95
2022-08-19T14:38:51.081Z,31.50
2022-08-19T14:41:21.773Z,33.65
2022-08-19T14:43:52.129Z,30.95
2022-08-19T14:46:23.469Z,32.92
2022-08-19T14:48:57.649Z,30.67
2022-08-19T14:51:29.766Z,29.27
2022-08-19T14:53:59.369Z,30.20
2022-08-19T14:56:30.038Z,29.00
2022-08-19T14:59:02.842Z,28.20
2022-08-19T15:01:32.555Z,26.65
2022-08-19T15:04:02.252Z,27.48
2022-08-19T15:06:31.973Z,26.15
2022-08-19T15:09:04.382Z,25.23
2022-08-19T15:11:35.071Z,25.85
2022-08-19T15:14:04.731Z,26.23
2022-08-19T15:16:34.438Z,26.85
2022-08-19T15:19:03.975Z,28.13
2022-08-19T15:21:33.777Z,28.95
2022-08-19T15:24:03.960Z,28.52
2022-08-19T15:26:34.760Z,28.05
2022-08-19T15:29:04.896Z,27.67
2022-08-19T15:31:38.746Z,28.63
2022-08-19T15:34:08.738Z,27.15
2022-08-19T15:36:38.736Z,28.27
2022-08-19T15:39:08.767Z,29.65
2022-08-19T15:41:38.628Z,29.63
2022-08-19T15:44:12.168Z,31.58
2022-08-19T15:46:43.503Z,31.17
2022-08-19T15:49:13.798Z,28.33
2022-08-19T15:51:44.810Z,29.63
2022-08-19T15:54:16.264Z,28.48
2022-08-19T15:57:03.843Z,29.17
2022-08-19T15:59:51.240Z,28.33
2022-08-19T16:02:39.397Z,27.88
2022-08-19T16:05:28.034Z,26.10
2022-08-19T16:07:57.724Z,28.20
2022-08-19T16:10:28.025Z,26.77
2022-08-19T16:12:58.758Z,27.23
2022-08-19T16:15:31.845Z,26.38
2022-08-19T16:18:05.700Z,26.65
2022-08-19T16:20:36.359Z,27.80
2022-08-19T16:23:06.526Z,27.20
2022-08-19T16:25:36.071Z,25.45
2022-08-19T16:28:06.250Z,27.02
2022-08-19T16:30:38.546Z,26.92
2022-08-19T16:33:08.321Z,26.42
2022-08-19T16:35:37.924Z,26.92
2022-08-19T16:38:08.280Z,27.50
2022-08-19T16:40:37.895Z,30.35
2022-08-19T16:43:09.760Z,31.48
2022-08-19T16:45:39.385Z,31.98
2022-08-19T16:48:13.621Z,29.02
2022-08-19T16:50:49.670Z,26.80
2022-08-19T16:53:20.156Z,28.35
2022-08-19T16:55:57.258Z,27.27
2022-08-19T16:58:28.372Z,24.42
2022-08-19T17:01:03.787Z,25.10
2022-08-19T17:03:35.771Z,25.38
2022-08-19T17:06:17.690Z,23.77
2022-08-19T17:08:53.560Z,24.52
2022-08-19T17:11:23.545Z,24.77
2022-08-19T17:13:53.317Z,23.02
2022-08-19T17:16:23.589Z,23.88
2022-08-19T17:18:54.303Z,22.88
2022-08-19T17:21:24.606Z,25.20
2022-08-19T17:23:54.345Z,23.88
2022-08-19T17:26:24.109Z,23.33
2022-08-19T17:28:54.457Z,21.65
2022-08-19T17:31:24.954Z,23.70
2022-08-19T17:33:55.190Z,22.85
2022-08-19T17:36:25.516Z,23.00
2022-08-19T17:38:56.858Z,23.00
2022-08-19T17:41:27.033Z,22.40
2022-08-19T17:43:56.878Z,21.48
2022-08-19T17:46:26.447Z,23.00
2022-08-19T17:48:58.837Z,22.33
2022-08-19T17:51:42.945Z,20.90
2022-08-19T17:54:13.811Z,21.05
2022-08-19T17:56:43.419Z,20.52
2022-08-19T17:59:14.096Z,20.55
2022-08-19T18:01:53.704Z,20.63
2022-08-19T18:04:27.037Z,18.60
2022-08-19T18:06:57.017Z,18.27
2022-08-19T18:09:41.203Z,19.80
2022-08-19T18:12:12.004Z,19.33
2022-08-19T18:14:41.869Z,19.75
2022-08-19T18:17:12.567Z,20.88
2022-08-19T18:19:43.588Z,18.42
2022-08-19T18:22:23.836Z,18.48
2022-08-19T18:24:53.517Z,20.85
2022-08-19T18:27:23.713Z,18.60
2022-08-19T18:29:53.320Z,18.27
2022-08-19T18:32:24.757Z,19.50
2022-08-19T18:34:54.619Z,19.38
2022-08-19T18:37:24.484Z,17.40
2022-08-19T18:40:12.625Z,17.77
2022-08-19T18:43:05.996Z,18.65
2022-08-19T18:45:54.192Z,16.95
2022-08-19T18:48:42.170Z,18.07
2022-08-19T18:51:11.812Z,17.00
2022-08-19T18:53:42.366Z,18.10
2022-08-19T18:56:12.372Z,17.70
2022-08-19T18:58:41.990Z,17.85
2022-08-19T19:01:13.757Z,17.63
2022-08-19T19:03:47.009Z,18.05
2022-08-19T19:06:17.207Z,16.80
2022-08-19T19:08:46.859Z,18.00
2022-08-19T19:11:16.423Z,17.75
2022-08-19T19:13:48.287Z,17.60
2022-08-19T19:16:22.429Z,18.17
2022-08-19T19:18:54.043Z,18.15
2022-08-19T19:21:29.057Z,18.63
2022-08-19T19:24:01.776Z,19.58
2022-08-19T19:26:31.706Z,18.73
2022-08-19T19:29:01.335Z,18.33
2022-08-19T19:31:34.456Z,17.85
2022-08-19T19:34:04.159Z,18.27
2022-08-19T19:36:45.000Z,17.15
2022-08-19T19:39:14.621Z,17.45
2022-08-19T19:42:08.627Z,18.85
2022-08-19T19:44:47.178Z,18.30
2022-08-19T19:47:17.113Z,17.88
2022-08-19T19:50:12.843Z,19.17
2022-08-19T19:52:37.323Z,16.50
2022-08-19T19:55:07.273Z,16.30
2022-08-19T19:57:36.798Z,15.48
2022-08-19T20:00:06.867Z,16.13
2022-08-19T20:02:36.372Z,16.77
2022-08-19T20:05:06.010Z,15.73
2022-08-19T20:07:53.498Z,16.55
2022-08-19T20:10:23.115Z,16.08
2022-08-19T20:12:57.389Z,16.13
2022-08-19T20:15:26.989Z,14.48
2022-08-19T20:17:56.947Z,16.05
2022-08-19T20:20:26.881Z,14.93
2022-08-19T20:22:56.865Z,15.07
2022-08-19T20:25:26.520Z,15.35
2022-08-19T20:27:56.429Z,13.88
2022-08-19T20:30:26.214Z,13.88
2022-08-19T20:32:58.203Z,13.77
2022-08-19T20:35:28.150Z,14.80
2022-08-19T20:37:58.541Z,14.55
2022-08-19T20:40:28.660Z,14.45
2022-08-19T20:42:58.828Z,13.77
2022-08-19T20:45:32.908Z,14.45
2022-08-19T20:48:03.914Z,14.60
2022-08-19T20:50:34.269Z,15.43
2022-08-19T20:53:04.173Z,15.15
2022-08-19T20:55:33.764Z,14.82
2022-08-19T20:58:04.129Z,15.23
2022-08-19T21:00:33.775Z,15.32
2022-08-19T21:03:03.361Z,16.60
2022-08-19T21:05:32.869Z,17.13
2022-08-19T21:08:02.569Z,16.35
2022-08-19T21:10:32.230Z,16.95
2022-08-19T21:13:01.846Z,16.65
2022-08-19T21:15:32.209Z,16.55
2022-08-19T21:18:01.914Z,15.85
2022-08-19T21:20:31.439Z,16.42
2022-08-19T21:23:05.851Z,14.77
2022-08-19T21:25:35.879Z,15.82
2022-08-19T21:28:06.874Z,15.07
2022-08-19T21:30:36.560Z,14.38
2022-08-19T21:33:06.638Z,14.13
2022-08-19T21:35:36.897Z,14.63
2022-08-19T21:38:06.515Z,13.60
2022-08-19T21:40:36.566Z,14.23
2022-08-19T21:43:11.016Z,15.90
2022-08-19T21:45:40.784Z,15.15
2022-08-19T21:48:10.364Z,12.35
2022-08-19T21:50:40.125Z,13.48
2022-08-19T21:53:15.680Z,12.65
2022-08-19T21:55:52.799Z,13.73
2022-08-19T21:58:28.775Z,14.05
2022-08-19T22:01:01.344Z,15.35
2022-08-19T22:03:32.803Z,15.32
2022-08-19T22:06:02.938Z,12.85
2022-08-19T22:08:32.934Z,13.50
2022-08-19T22:11:02.757Z,13.18
2022-08-19T22:13:35.926Z,14.00
2022-08-19T22:16:08.982Z,13.85
2022-08-19T22:18:38.853Z,13.30
2022-08-19T22:21:11.936Z,13.23
2022-08-19T22:23:43.247Z,12.40
2022-08-19T22:26:13.343Z,11.70
2022-08-19T22:28:43.980Z,12.90
2022-08-19T22:31:13.518Z,13.63
2022-08-19T22:33:46.982Z,15.23
2022-08-19T22:36:16.542Z,13.15
2022-08-19T22:38:46.118Z,13.70
2022-08-19T22:41:17.053Z,16.08
2022-08-19T22:43:51.272Z,15.52
2022-08-19T22:46:20.895Z,14.32
2022-08-19T22:48:55.951Z,15.02
2022-08-19T22:51:52.198Z,15.40
2022-08-19T22:54:21.831Z,15.60
2022-08-19T22:56:53.198Z,15.98
2022-08-19T22:59:23.440Z,14.95
2022-08-19T23:01:52.967Z,15.70
2022-08-19T23:04:24.188Z,16.88
2022-08-19T23:06:54.335Z,16.73
2022-08-19T23:09:23.828Z,17.73
2022-08-19T23:11:56.898Z,17.45
2022-08-19T23:14:26.361Z,18.20
2022-08-19T23:16:58.936Z,16.85
2022-08-19T23:19:28.864Z,18.13
2022-08-19T23:21:59.036Z,17.73
2022-08-19T23:24:28.620Z,17.73
2022-08-19T23:27:16.731Z,17.70
2022-08-19T23:30:04.110Z,16.17
2022-08-19T23:32:36.570Z,18.38
2022-08-19T23:35:06.091Z,19.13
2022-08-19T23:37:35.617Z,19.42
2022-08-19T23:40:05.681Z,19.30
2022-08-19T23:42:35.702Z,18.55
2022-08-19T23:45:08.556Z,18.40
2022-08-19T23:47:40.716Z,19.70
2022-08-19T23:50:11.217Z,17.83
2022-08-19T23:52:50.929Z,17.45
2022-08-19T23:55:21.116Z,16.98
2022-08-19T23:57:50.741Z,18.40
